Time;durP1;ratioP1;P1;durP2;ratioP2;P2;SDS_P1;SDS_P2;PMS_P1;PMS_P2;Temp;Humidity;BMP_temperature;BMP_pressure;BME280_temperature;BME280_humidity;BME280_pressure;Samples;Min_cycle;Max_cycle;Signal;HPM_P1;HPM_P2
2023/04/03 00:00:09;;;;;;;24.65;14.27;;;;;;;;;;2036627;29;20506;-94
2023/04/03 00:01:30;;;;;;;18.65;13.68;;;;;;;;;;2040214;29;20046;-95
2023/04/03 00:02:51;;;;;;;26.83;16.25;;;;;;;;;;2037952;29;20131;-94
2023/04/03 00:04:12;;;;;;;20.05;13.43;;;;;;;;;;2043808;28;20049;-94
2023/04/03 00:05:34;;;;;;;21.80;13.10;;;;;;;;;;2038410;29;20127;-94
2023/04/03 00:06:55;;;;;;;26.85;14.82;;;;;;;;;;2037968;29;20463;-94
2023/04/03 00:08:16;;;;;;;19.77;13.70;;;;;;;;;;2037298;29;20047;-95
2023/04/03 00:09:37;;;;;;;19.38;14.02;;;;;;;;;;2039222;29;20036;-94
2023/04/03 00:10:58;;;;;;;20.90;13.07;;;;;;;;;;2039027;29;20035;-95
2023/04/03 00:12:19;;;;;;;18.70;13.02;;;;;;;;;;2036366;29;20452;-94
2023/04/03 00:13:40;;;;;;;19.83;13.77;;;;;;;;;;2037776;29;20031;-94
2023/04/03 00:15:02;;;;;;;24.20;14.20;;;;;;;;;;2037529;29;20032;-94
2023/04/03 00:16:23;;;;;;;23.58;14.60;;;;;;;;;;2038803;29;20079;-94
2023/04/03 00:17:44;;;;;;;24.33;13.88;;;;;;;;;;2038833;29;20028;-95
2023/04/03 00:19:05;;;;;;;24.95;15.38;;;;;;;;;;2047382;28;20027;-95
2023/04/03 00:20:27;;;;;;;22.83;15.68;;;;;;;;;;2040209;29;20032;-96
2023/04/03 00:21:48;;;;;;;24.70;14.48;;;;;;;;;;2034216;29;20028;-94
2023/04/03 00:23:09;;;;;;;25.05;15.30;;;;;;;;;;2041014;29;20036;-95
2023/04/03 00:24:30;;;;;;;23.35;13.27;;;;;;;;;;2036840;29;20356;-94
2023/04/03 00:25:52;;;;;;;19.30;12.77;;;;;;;;;;2036547;29;20020;-95
2023/04/03 00:27:13;;;;;;;22.30;14.68;;;;;;;;;;2036082;29;20028;-95
2023/04/03 00:28:36;;;;;;;33.88;17.77;;;;;;;;;;2025471;29;20036;-94
2023/04/03 00:29:57;;;;;;;23.23;13.57;;;;;;;;;;2038071;29;20167;-94
2023/04/03 00:31:18;;;;;;;22.92;14.50;;;;;;;;;;2036098;29;20079;-95
2023/04/03 00:32:39;;;;;;;17.70;13.60;;;;;;;;;;2040997;29;20039;-94
2023/04/03 00:34:00;;;;;;;20.55;13.43;;;;;;;;;;2036910;29;20036;-95
2023/04/03 00:35:22;;;;;;;20.67;14.68;;;;;;;;;;2039133;29;20035;-94
2023/04/03 00:36:43;;;;;;;23.35;13.68;;;;;;;;;;2037039;29;20044;-94
2023/04/03 00:38:04;;;;;;;25.02;13.80;;;;;;;;;;2038565;29;20032;-94
2023/04/03 00:39:25;;;;;;;18.33;12.70;;;;;;;;;;2043708;28;20058;-94
2023/04/03 00:40:47;;;;;;;16.58;12.82;;;;;;;;;;2050058;28;20043;-94
2023/04/03 00:42:08;;;;;;;20.30;14.20;;;;;;;;;;2036775;29;20052;-94
2023/04/03 00:43:29;;;;;;;22.10;13.98;;;;;;;;;;2044866;28;20047;-93
2023/04/03 00:44:53;;;;;;;21.80;14.82;;;;;;;;;;2042793;29;20024;-94
2023/04/03 00:46:14;;;;;;;23.42;14.93;;;;;;;;;;2048214;28;20055;-94
2023/04/03 00:47:35;;;;;;;20.70;14.55;;;;;;;;;;2037726;29;20779;-94
2023/04/03 00:48:56;;;;;;;19.10;13.20;;;;;;;;;;2037497;28;20048;-95
2023/04/03 00:50:17;;;;;;;25.42;14.40;;;;;;;;;;2038891;29;20444;-94
2023/04/03 00:51:38;;;;;;;23.00;14.43;;;;;;;;;;2037584;29;20183;-95
2023/04/03 00:53:03;;;;;;;23.63;15.27;;;;;;;;;;2036959;29;20449;-95
2023/04/03 00:54:25;;;;;;;23.95;14.13;;;;;;;;;;2048806;28;20085;-95
2023/04/03 00:55:46;;;;;;;24.05;14.07;;;;;;;;;;2039391;29;20051;-94
2023/04/03 00:57:08;;;;;;;25.45;14.23;;;;;;;;;;2046021;28;20062;-95
2023/04/03 00:58:36;;;;;;;20.35;13.85;;;;;;;;;;2037172;29;20479;-95
2023/04/03 01:00:01;;;;;;;21.25;13.90;;;;;;;;;;2035823;29;20050;-94
2023/04/03 01:01:23;;;;;;;20.38;13.70;;;;;;;;;;2033621;29;20039;-91
2023/04/03 01:02:45;;;;;;;22.75;14.80;;;;;;;;;;2041348;29;20494;-90
2023/04/03 02:18:18;;;;;;;25.45;12.05;;;;;;;;;;2217775;23;20043;-96
2023/04/03 02:19:39;;;;;;;18.60;10.77;;;;;;;;;;2038169;28;20036;-96
2023/04/03 02:21:00;;;;;;;13.63;9.47;;;;;;;;;;2043740;29;20091;-96
2023/04/03 02:22:21;;;;;;;14.00;9.93;;;;;;;;;;2038788;29;20062;-96
2023/04/03 02:23:42;;;;;;;21.08;11.90;;;;;;;;;;2039404;29;20091;-95
2023/04/03 02:25:03;;;;;;;20.77;10.60;;;;;;;;;;2036729;29;20039;-95
2023/04/03 02:26:25;;;;;;;15.55;10.10;;;;;;;;;;2038834;29;20036;-95
2023/04/03 02:27:46;;;;;;;20.15;11.13;;;;;;;;;;2036423;29;20118;-94
2023/04/03 02:29:07;;;;;;;18.85;10.25;;;;;;;;;;2042021;29;20039;-94
2023/04/03 02:30:28;;;;;;;16.05;10.50;;;;;;;;;;2038636;29;20396;-94
2023/04/03 02:31:50;;;;;;;20.80;10.77;;;;;;;;;;2043784;29;20040;-95
2023/04/03 02:33:11;;;;;;;22.35;11.13;;;;;;;;;;2045742;28;20514;-94
2023/04/03 02:34:32;;;;;;;22.83;12.07;;;;;;;;;;2042652;29;20693;-95
2023/04/03 02:35:54;;;;;;;17.55;10.75;;;;;;;;;;2036405;29;20107;-94
2023/04/03 02:37:15;;;;;;;;;;;;;;;;;;2056699;28;20031;-95
2023/04/03 02:38:36;;;;;;;21.80;10.77;;;;;;;;;;2042586;29;19918;-95
2023/04/03 02:39:57;;;;;;;16.88;10.50;;;;;;;;;;2031088;28;20035;-95
2023/04/03 02:41:18;;;;;;;17.88;11.20;;;;;;;;;;2038578;29;20039;-95
2023/04/03 02:42:39;;;;;;;16.05;10.38;;;;;;;;;;2040719;29;20047;-95
2023/04/03 02:44:00;;;;;;;20.15;11.55;;;;;;;;;;2041401;29;20622;-94
2023/04/03 02:45:21;;;;;;;24.73;12.10;;;;;;;;;;2045915;28;20023;-94
2023/04/03 02:46:42;;;;;;;16.90;10.55;;;;;;;;;;2044006;29;20043;-94
2023/04/03 02:48:06;;;;;;;18.17;10.77;;;;;;;;;;2039953;29;20024;-94
2023/04/03 02:49:27;;;;;;;30.70;14.70;;;;;;;;;;2039873;28;20067;-95
2023/04/03 02:50:48;;;;;;;19.58;10.68;;;;;;;;;;2039027;29;20032;-94
2023/04/03 02:52:09;;;;;;;14.98;9.60;;;;;;;;;;2041482;29;20032;-94
2023/04/03 02:53:30;;;;;;;17.88;10.30;;;;;;;;;;2043651;29;20038;-95
2023/04/03 02:54:51;;;;;;;15.65;10.20;;;;;;;;;;2045225;29;20040;-94
2023/04/03 02:56:11;;;;;;;14.90;10.35;;;;;;;;;;2042188;29;20039;-94
2023/04/03 02:57:32;;;;;;;13.57;9.23;;;;;;;;;;2037469;28;20181;-94
2023/04/03 02:58:54;;;;;;;16.17;10.25;;;;;;;;;;2045417;29;20116;-95
2023/04/03 03:00:15;;;;;;;15.55;10.60;;;;;;;;;;2040164;29;20050;-94
2023/04/03 03:01:36;;;;;;;16.85;10.48;;;;;;;;;;2040328;29;20609;-94
2023/04/03 03:02:57;;;;;;;15.65;9.93;;;;;;;;;;2042587;29;20046;-95
2023/04/03 03:04:18;;;;;;;15.18;9.02;;;;;;;;;;2038485;29;20024;-94
2023/04/03 03:05:39;;;;;;;16.88;10.02;;;;;;;;;;2037074;29;20032;-94
2023/04/03 03:07:00;;;;;;;17.13;10.60;;;;;;;;;;2044186;29;20027;-95
2023/04/03 03:08:21;;;;;;;16.80;10.52;;;;;;;;;;2041805;29;20032;-95
2023/04/03 03:09:42;;;;;;;15.88;10.50;;;;;;;;;;2037712;28;20031;-95
2023/04/03 03:11:03;;;;;;;13.68;9.18;;;;;;;;;;2042864;29;20043;-94
2023/04/03 03:12:24;;;;;;;14.17;10.30;;;;;;;;;;2037910;29;20040;-95
2023/04/03 03:13:45;;;;;;;18.85;10.93;;;;;;;;;;2036742;29;20039;-96
2023/04/03 03:15:06;;;;;;;13.85;9.68;;;;;;;;;;2034164;29;20425;-96
2023/04/03 03:16:27;;;;;;;12.40;9.48;;;;;;;;;;2038423;29;20044;-95
2023/04/03 03:17:48;;;;;;;17.92;9.77;;;;;;;;;;2041121;29;20050;-96
2023/04/03 03:19:09;;;;;;;10.80;9.40;;;;;;;;;;2051925;28;20054;-95
2023/04/03 03:20:30;;;;;;;14.77;9.88;;;;;;;;;;2039870;29;20055;-96
2023/04/03 03:21:51;;;;;;;15.18;9.15;;;;;;;;;;2037442;29;20051;-95
2023/04/03 03:23:12;;;;;;;14.15;9.27;;;;;;;;;;2049329;28;20616;-96
2023/04/03 03:24:33;;;;;;;15.10;9.35;;;;;;;;;;2044188;29;20042;-95
2023/04/03 03:25:58;;;;;;;11.38;8.40;;;;;;;;;;2043793;29;20032;-94
2023/04/03 03:27:19;;;;;;;12.48;9.32;;;;;;;;;;2041492;29;20385;-95
2023/04/03 03:28:40;;;;;;;14.52;9.73;;;;;;;;;;2040054;29;20043;-96
2023/04/03 03:30:01;;;;;;;11.80;8.90;;;;;;;;;;2041875;28;20059;-95
2023/04/03 03:31:22;;;;;;;17.65;9.07;;;;;;;;;;2049641;28;20039;-95
2023/04/03 03:32:43;;;;;;;13.55;8.98;;;;;;;;;;2041752;29;20043;-96
2023/04/03 03:34:04;;;;;;;13.32;8.27;;;;;;;;;;2039517;29;20036;-95
2023/04/03 03:35:25;;;;;;;15.13;9.98;;;;;;;;;;2041848;29;20039;-96
2023/04/03 03:36:46;;;;;;;13.07;8.60;;;;;;;;;;2041666;29;20031;-95
2023/04/03 03:38:07;;;;;;;17.10;9.73;;;;;;;;;;2039353;29;20039;-94
2023/04/03 03:39:28;;;;;;;21.30;9.98;;;;;;;;;;2044098;29;20035;-96
2023/04/03 03:40:50;;;;;;;17.77;10.65;;;;;;;;;;2045461;29;20078;-95
2023/04/03 03:42:11;;;;;;;11.07;9.10;;;;;;;;;;2043787;29;20020;-96
2023/04/03 03:43:32;;;;;;;17.52;9.77;;;;;;;;;;2036337;29;20031;-95
2023/04/03 03:45:25;;;;;;;;;;;;;;;;;;;;;
2023/04/03 03:46:46;;;;;;;10.88;8.73;;;;;;;;;;2050174;29;20027;-94
2023/04/03 03:48:17;;;;;;;19.27;9.68;;;;;;;;;;2041476;29;20039;-96
2023/04/03 03:49:38;;;;;;;15.65;9.20;;;;;;;;;;2041827;29;20038;-95
2023/04/03 03:50:59;;;;;;;19.58;10.73;;;;;;;;;;2039126;29;20047;-94
2023/04/03 03:52:20;;;;;;;19.48;10.32;;;;;;;;;;2040240;29;20039;-95
2023/04/03 03:53:41;;;;;;;20.10;10.50;;;;;;;;;;2042135;29;20087;-95
2023/04/03 03:55:02;;;;;;;15.50;9.90;;;;;;;;;;2040166;29;20028;-95
2023/04/03 03:56:23;;;;;;;16.58;10.02;;;;;;;;;;2035986;29;20044;-95
2023/04/03 03:57:44;;;;;;;20.23;9.80;;;;;;;;;;2039530;29;20039;-95
2023/04/03 03:59:06;;;;;;;20.55;11.27;;;;;;;;;;2035995;29;20051;-95
2023/04/03 04:00:27;;;;;;;18.17;10.32;;;;;;;;;;2035844;28;20065;-95
2023/04/03 04:01:48;;;;;;;13.23;9.75;;;;;;;;;;2039834;29;20134;-95
2023/04/03 04:03:09;;;;;;;14.30;9.43;;;;;;;;;;2037159;29;20038;-95
2023/04/03 04:04:30;;;;;;;20.33;10.68;;;;;;;;;;2038527;29;20060;-96
2023/04/03 04:05:51;;;;;;;17.77;10.10;;;;;;;;;;2036674;29;20032;-95
2023/04/03 04:07:12;;;;;;;18.70;9.13;;;;;;;;;;2038697;29;20031;-95
2023/04/03 04:08:33;;;;;;;17.60;9.82;;;;;;;;;;2039209;29;20110;-95
2023/04/03 04:09:54;;;;;;;22.30;11.27;;;;;;;;;;2039110;28;20027;-96
2023/04/03 04:11:15;;;;;;;19.90;9.52;;;;;;;;;;2037661;29;20027;-96
2023/04/03 04:12:36;;;;;;;10.48;8.90;;;;;;;;;;2040738;29;20031;-95
2023/04/03 04:13:57;;;;;;;19.10;8.73;;;;;;;;;;2039799;29;20067;-94
2023/04/03 04:15:18;;;;;;;13.40;9.52;;;;;;;;;;2047022;28;20063;-95
2023/04/03 04:16:39;;;;;;;20.80;10.35;;;;;;;;;;2042889;28;20036;-96
2023/04/03 04:18:00;;;;;;;19.75;9.95;;;;;;;;;;2039724;29;20035;-96
2023/04/03 04:19:21;;;;;;;15.85;10.25;;;;;;;;;;2041049;29;20043;-95
2023/04/03 04:20:44;;;;;;;15.65;9.23;;;;;;;;;;2041244;28;20090;-96
2023/04/03 04:22:05;;;;;;;15.10;9.32;;;;;;;;;;2046393;28;20434;-96
2023/04/03 04:23:26;;;;;;;16.35;9.45;;;;;;;;;;2040666;29;20115;-95
2023/04/03 04:24:47;;;;;;;21.52;9.82;;;;;;;;;;2039226;29;20035;-95
2023/04/03 04:26:08;;;;;;;15.38;9.45;;;;;;;;;;2038471;29;20104;-95
2023/04/03 04:27:29;;;;;;;18.45;10.30;;;;;;;;;;2039372;29;20032;-95
2023/04/03 04:28:50;;;;;;;13.95;9.55;;;;;;;;;;2035378;29;20036;-95
2023/04/03 04:30:11;;;;;;;22.08;10.95;;;;;;;;;;2038203;28;20503;-95
2023/04/03 04:31:32;;;;;;;18.13;9.63;;;;;;;;;;2037726;29;20031;-95
2023/04/03 04:32:53;;;;;;;13.18;9.23;;;;;;;;;;2039077;29;20035;-94
2023/04/03 04:34:14;;;;;;;12.52;9.05;;;;;;;;;;2039337;29;20032;-94
2023/04/03 04:35:36;;;;;;;19.80;10.25;;;;;;;;;;2039350;29;20036;-96
2023/04/03 04:36:57;;;;;;;11.82;8.98;;;;;;;;;;2047937;28;20031;-96
2023/04/03 04:38:17;;;;;;;14.38;9.57;;;;;;;;;;2042202;29;20168;-95
2023/04/03 04:39:39;;;;;;;19.17;10.40;;;;;;;;;;2038962;29;20024;-95
2023/04/03 04:41:00;;;;;;;14.95;9.90;;;;;;;;;;2035861;29;20043;-96
2023/04/03 04:42:21;;;;;;;15.07;9.57;;;;;;;;;;2045228;28;20087;-96
2023/04/03 04:43:42;;;;;;;16.85;10.15;;;;;;;;;;2042604;29;20047;-96
2023/04/03 04:45:03;;;;;;;12.80;9.88;;;;;;;;;;2039110;29;20048;-96
2023/04/03 04:46:24;;;;;;;19.92;11.43;;;;;;;;;;2044787;28;20039;-95
2023/04/03 04:47:51;;;;;;;18.67;10.30;;;;;;;;;;2043156;29;20035;-96
2023/04/03 04:49:12;;;;;;;16.63;10.30;;;;;;;;;;2039426;29;20062;-96
2023/04/03 04:50:33;;;;;;;15.45;9.80;;;;;;;;;;2031491;28;20047;-95
2023/04/03 04:51:54;;;;;;;14.13;9.52;;;;;;;;;;2048082;29;20053;-96
2023/04/03 04:53:15;;;;;;;19.55;10.20;;;;;;;;;;2040877;29;20027;-96
2023/04/03 04:54:36;;;;;;;18.48;10.88;;;;;;;;;;2045878;28;20043;-96
2023/04/03 04:55:57;;;;;;;14.57;10.48;;;;;;;;;;2042095;29;20028;-96
2023/04/03 04:57:18;;;;;;;14.27;9.25;;;;;;;;;;2039045;29;20059;-96
2023/04/03 04:58:39;;;;;;;17.08;9.57;;;;;;;;;;2040656;29;20039;-95
2023/04/03 05:00:00;;;;;;;15.40;8.88;;;;;;;;;;2039585;29;20028;-96
2023/04/03 05:01:21;;;;;;;18.70;9.00;;;;;;;;;;2042847;29;20043;-95
2023/04/03 05:02:44;;;;;;;20.42;10.10;;;;;;;;;;2043895;28;20119;-95
2023/04/03 05:04:05;;;;;;;15.50;9.68;;;;;;;;;;2045641;29;20027;-95
2023/04/03 05:05:26;;;;;;;10.75;9.02;;;;;;;;;;2035609;29;20028;-95
2023/04/03 05:06:47;;;;;;;16.60;9.57;;;;;;;;;;2043719;29;20031;-95
2023/04/03 05:08:08;;;;;;;13.82;9.20;;;;;;;;;;2047088;29;20039;-95
2023/04/03 05:09:29;;;;;;;11.40;8.57;;;;;;;;;;2046154;29;20019;-95
2023/04/03 05:10:50;;;;;;;14.52;9.82;;;;;;;;;;2040630;28;20032;-94
2023/04/03 05:12:11;;;;;;;16.15;9.80;;;;;;;;;;2043001;29;20027;-96
2023/04/03 05:13:32;;;;;;;12.98;8.82;;;;;;;;;;2039592;29;20055;-96
2023/04/03 05:14:53;;;;;;;11.45;9.27;;;;;;;;;;2041787;29;20027;-95
2023/04/03 05:16:15;;;;;;;14.18;8.80;;;;;;;;;;2037575;29;20030;-96
2023/04/03 05:17:38;;;;;;;19.95;9.80;;;;;;;;;;2040869;29;20040;-96
2023/04/03 05:18:59;;;;;;;18.00;9.75;;;;;;;;;;2043011;29;20523;-96
2023/04/03 05:20:20;;;;;;;28.42;13.20;;;;;;;;;;2044813;28;20032;-92
2023/04/03 05:21:41;;;;;;;13.38;10.05;;;;;;;;;;2041647;29;20050;-93
2023/04/03 05:23:02;;;;;;;14.65;8.95;;;;;;;;;;2036410;29;20040;-92
2023/04/03 05:24:23;;;;;;;18.67;9.95;;;;;;;;;;2038557;29;20029;-92
2023/04/03 05:25:46;;;;;;;13.93;9.32;;;;;;;;;;2040261;29;20040;-93
2023/04/03 05:27:07;;;;;;;17.45;10.18;;;;;;;;;;2039087;29;20024;-92
2023/04/03 05:28:28;;;;;;;15.50;9.05;;;;;;;;;;2043921;29;20051;-92
2023/04/03 05:29:50;;;;;;;18.20;9.32;;;;;;;;;;2043538;29;20413;-92
2023/04/03 05:31:11;;;;;;;16.25;9.30;;;;;;;;;;2040712;29;20127;-93
2023/04/03 05:32:32;;;;;;;16.98;9.38;;;;;;;;;;2040702;29;20032;-93
2023/04/03 05:33:53;;;;;;;18.07;10.13;;;;;;;;;;2041050;29;20507;-93
2023/04/03 05:35:15;;;;;;;16.95;9.55;;;;;;;;;;2041458;29;20438;-93
2023/04/03 05:36:36;;;;;;;17.45;10.23;;;;;;;;;;2042560;29;20140;-93
2023/04/03 05:37:57;;;;;;;21.05;10.55;;;;;;;;;;2041652;29;20096;-93
2023/04/03 05:39:18;;;;;;;18.05;9.52;;;;;;;;;;2040816;29;20131;-92
2023/04/03 05:40:57;;;;;;;20.48;10.07;;;;;;;;;;2040318;28;20102;-93
2023/04/03 05:42:18;;;;;;;24.52;10.10;;;;;;;;;;2040169;29;20384;-93
2023/04/03 05:43:39;;;;;;;18.23;10.07;;;;;;;;;;2040913;29;20043;-93
2023/04/03 05:45:00;;;;;;;17.35;9.98;;;;;;;;;;2041986;29;20024;-93
2023/04/03 05:46:21;;;;;;;20.50;9.50;;;;;;;;;;2039996;29;20355;-93
2023/04/03 05:47:42;;;;;;;21.23;9.77;;;;;;;;;;2038537;29;20036;-93
2023/04/03 05:49:03;;;;;;;19.23;9.77;;;;;;;;;;2038087;29;20044;-93
2023/04/03 05:50:24;;;;;;;27.98;12.68;;;;;;;;;;2037742;28;20088;-93
2023/04/03 05:51:45;;;;;;;12.70;8.98;;;;;;;;;;2038841;29;20040;-93
2023/04/03 05:53:27;;;;;;;15.50;9.45;;;;;;;;;;2038394;29;20039;-93
2023/04/03 05:54:48;;;;;;;16.90;10.13;;;;;;;;;;2056599;28;20086;-93
2023/04/03 05:56:10;;;;;;;21.45;9.35;;;;;;;;;;2044448;28;20582;-93
2023/04/03 05:57:36;;;;;;;20.02;9.73;;;;;;;;;;2038896;29;20054;-93
2023/04/03 05:59:04;;;;;;;18.83;9.30;;;;;;;;;;2040667;29;20577;-94
2023/04/03 06:00:25;;;;;;;38.03;16.63;;;;;;;;;;2032387;29;20035;-93
2023/04/03 06:01:48;;;;;;;21.13;9.68;;;;;;;;;;2035238;29;20036;-93
2023/04/03 06:03:10;;;;;;;18.10;9.68;;;;;;;;;;2046772;28;20035;-93
2023/04/03 06:04:33;;;;;;;18.52;9.13;;;;;;;;;;2038908;29;20159;-94
2023/04/03 06:05:57;;;;;;;18.30;9.75;;;;;;;;;;2054396;28;20035;-93
2023/04/03 06:07:20;;;;;;;22.38;9.02;;;;;;;;;;2042265;28;20028;-93
2023/04/03 06:08:43;;;;;;;15.55;9.05;;;;;;;;;;2041096;29;20550;-92
2023/04/03 06:10:05;;;;;;;20.73;9.80;;;;;;;;;;2039756;29;20091;-93
2023/04/03 06:11:26;;;;;;;15.82;10.00;;;;;;;;;;2037230;29;20146;-93
2023/04/03 06:12:47;;;;;;;19.02;9.55;;;;;;;;;;2046573;28;20051;-92
2023/04/03 06:14:08;;;;;;;21.88;9.65;;;;;;;;;;2041970;29;20314;-93
2023/04/03 06:15:29;;;;;;;12.48;8.95;;;;;;;;;;2038842;29;20032;-93
2023/04/03 06:16:51;;;;;;;15.95;9.52;;;;;;;;;;2048597;29;20031;-92
2023/04/03 06:18:12;;;;;;;21.98;10.77;;;;;;;;;;2043497;29;20023;-93
2023/04/03 06:19:33;;;;;;;17.45;9.77;;;;;;;;;;2043212;29;20047;-92
2023/04/03 06:20:54;;;;;;;18.75;8.73;;;;;;;;;;2039875;28;20067;-92
2023/04/03 06:22:15;;;;;;;15.90;9.00;;;;;;;;;;2040109;29;20036;-95
2023/04/03 06:23:41;;;;;;;17.83;9.33;;;;;;;;;;2043020;29;20048;-96
2023/04/03 06:25:06;;;;;;;17.98;9.70;;;;;;;;;;2046346;29;20032;-96
2023/04/03 06:26:57;;;;;;;;;;;;;;;;;;;;;
2023/04/03 06:28:41;;;;;;;22.73;10.85;;;;;;;;;;2057555;28;20028;-96
2023/04/03 06:31:59;;;;;;;15.68;8.85;;;;;;;;;;2047573;29;20050;-96
2023/04/03 06:33:43;;;;;;;17.58;9.27;;;;;;;;;;2049823;29;20039;-96
2023/04/03 06:35:38;;;;;;;14.77;9.77;;;;;;;;;;2046226;28;20032;-96
2023/04/03 06:50:49;;;;;;;19.63;8.82;;;;;;;;;;2046816;28;20011;-78
2023/04/03 06:52:11;;;;;;;15.95;9.40;;;;;;;;;;2036701;29;20052;-74
2023/04/03 06:58:32;;;;;;;22.48;8.85;;;;;;;;;;2030029;29;20036;-77
2023/04/03 07:00:17;;;;;;;14.18;6.80;;;;;;;;;;2032006;29;20028;-80
2023/04/03 07:01:38;;;;;;;17.23;7.43;;;;;;;;;;2029164;29;20040;-74
2023/04/03 07:03:02;;;;;;;13.75;6.93;;;;;;;;;;2022000;29;20125;-75
2023/04/03 07:04:23;;;;;;;11.23;6.32;;;;;;;;;;2037441;29;20087;-76
2023/04/03 07:05:47;;;;;;;14.90;6.35;;;;;;;;;;2032109;29;20076;-75
2023/04/03 07:07:38;;;;;;;13.55;5.95;;;;;;;;;;2033114;29;20038;-76
2023/04/03 07:09:07;;;;;;;12.98;5.70;;;;;;;;;;2041701;29;20031;-76
2023/04/03 07:10:28;;;;;;;11.82;5.60;;;;;;;;;;2038759;29;20036;-78
2023/04/03 07:12:04;;;;;;;10.68;4.95;;;;;;;;;;2036482;29;20068;-80
2023/04/03 07:13:53;;;;;;;;;;;;;;;;;;;;;
2023/04/03 07:15:14;;;;;;;9.90;5.03;;;;;;;;;;2045769;29;20035;-75
2023/04/03 07:31:06;;;;;;;12.23;6.35;;;;;;;;;;2034188;29;20399;-76
2023/04/03 07:32:27;;;;;;;18.10;7.28;;;;;;;;;;2030304;29;20504;-75
2023/04/03 07:33:48;;;;;;;13.73;6.25;;;;;;;;;;2044952;29;20043;-75
2023/04/03 07:35:09;;;;;;;11.85;6.43;;;;;;;;;;2038418;29;20028;-79
2023/04/03 07:36:33;;;;;;;8.98;5.85;;;;;;;;;;2044714;29;20035;-78
2023/04/03 07:37:54;;;;;;;7.07;5.00;;;;;;;;;;2049515;29;20024;-78
2023/04/03 07:39:15;;;;;;;8.48;5.60;;;;;;;;;;2045230;29;20035;-77
2023/04/03 07:40:36;;;;;;;8.38;5.45;;;;;;;;;;2041602;29;20133;-78
2023/04/03 07:41:57;;;;;;;12.82;6.72;;;;;;;;;;2047899;28;20038;-77
2023/04/03 07:43:32;;;;;;;9.82;6.22;;;;;;;;;;2047641;28;20071;-73
2023/04/03 07:44:53;;;;;;;15.50;6.20;;;;;;;;;;2046099;29;20414;-74
2023/04/03 07:46:15;;;;;;;14.15;6.07;;;;;;;;;;2034078;28;20035;-75
2023/04/03 07:47:36;;;;;;;8.40;5.05;;;;;;;;;;2035671;29;20044;-74
2023/04/03 07:48:58;;;;;;;14.07;5.55;;;;;;;;;;2041135;29;20442;-74
2023/04/03 07:54:39;;;;;;;12.98;6.30;;;;;;;;;;2048991;29;20051;-75
2023/04/03 08:08:08;;;;;;;16.30;5.45;;;;;;;;;;2023274;29;20050;-76
2023/04/03 08:11:36;;;;;;;11.73;4.68;;;;;;;;;;2021804;29;20056;-77
2023/04/03 08:13:21;;;;;;;;;;;;;;;;;;;;;
2023/04/03 08:14:42;;;;;;;13.32;4.50;;;;;;;;;;2029548;29;20039;-79
2023/04/03 08:16:22;;;;;;;6.68;3.67;;;;;;;;;;2044812;29;20032;-79
2023/04/03 08:17:45;;;;;;;9.73;4.13;;;;;;;;;;2031717;29;20488;-73
2023/04/03 08:21:01;;;;;;;12.27;3.92;;;;;;;;;;2029536;29;20919;-73
2023/04/03 08:24:43;;;;;;;10.13;3.88;;;;;;;;;;2021827;29;20088;-77
2023/04/03 08:26:40;;;;;;;8.30;3.55;;;;;;;;;;2024613;29;20417;-77
2023/04/03 08:28:01;;;;;;;11.32;4.85;;;;;;;;;;1998771;29;20446;-74
2023/04/03 08:29:23;;;;;;;11.38;4.30;;;;;;;;;;2000905;29;20049;-75
2023/04/03 08:30:45;;;;;;;8.98;3.55;;;;;;;;;;1999034;29;20244;-75
2023/04/03 08:32:06;;;;;;;18.50;6.35;;;;;;;;;;2019734;29;20041;-77
2023/04/03 08:33:27;;;;;;;10.88;4.15;;;;;;;;;;2017612;29;20029;-77
2023/04/03 08:36:59;;;;;;;8.88;3.70;;;;;;;;;;2033532;29;20614;-79
2023/04/03 08:38:20;;;;;;;12.48;4.68;;;;;;;;;;2024263;29;20040;-77
2023/04/03 08:39:50;;;;;;;8.75;3.95;;;;;;;;;;2020023;29;20037;-74
2023/04/03 08:41:16;;;;;;;7.47;3.58;;;;;;;;;;2030402;29;20036;-75
2023/04/03 08:43:08;;;;;;;;;;;;;;;;;;;;;
2023/04/03 08:44:50;;;;;;;9.40;3.58;;;;;;;;;;2030126;29;20043;-75
2023/04/03 08:46:15;;;;;;;9.60;3.70;;;;;;;;;;2030939;29;20036;-76
2023/04/03 08:47:42;;;;;;;9.90;4.05;;;;;;;;;;2022888;29;20512;-75
2023/04/03 08:49:04;;;;;;;6.93;3.42;;;;;;;;;;2030092;29;20040;-73
2023/04/03 08:50:31;;;;;;;9.82;3.33;;;;;;;;;;2032292;29;20071;-74
2023/04/03 08:51:52;;;;;;;6.53;3.60;;;;;;;;;;2033114;29;20032;-75
2023/04/03 08:53:15;;;;;;;6.78;3.47;;;;;;;;;;2036707;29;20035;-74
2023/04/03 08:54:50;;;;;;;6.43;3.28;;;;;;;;;;2035783;29;20032;-74
2023/04/03 08:56:33;;;;;;;8.85;3.83;;;;;;;;;;2038750;29;20313;-82
2023/04/03 09:02:20;;;;;;;8.90;3.88;;;;;;;;;;2042063;29;20015;-81
2023/04/03 09:03:47;;;;;;;7.47;3.78;;;;;;;;;;2035762;29;20071;-78
2023/04/03 09:07:36;;;;;;;6.07;3.50;;;;;;;;;;2034651;29;20025;-78
2023/04/03 09:09:20;;;;;;;4.75;3.20;;;;;;;;;;2043654;29;20024;-78
2023/04/03 09:10:55;;;;;;;3.70;3.05;;;;;;;;;;2038301;29;20028;-74
2023/04/03 09:12:33;;;;;;;8.63;4.22;;;;;;;;;;2040366;29;20566;-75
2023/04/03 09:13:54;;;;;;;5.63;3.38;;;;;;;;;;2045732;28;20035;-73
2023/04/03 09:15:20;;;;;;;6.15;3.28;;;;;;;;;;2033676;29;20044;-77
2023/04/03 09:16:57;;;;;;;6.68;3.42;;;;;;;;;;2036801;29;20035;-74
2023/04/03 09:18:47;;;;;;;10.88;4.70;;;;;;;;;;2043794;29;20095;-75
2023/04/03 11:52:09;;;;;;;33.22;12.43;;;;;;;;;;2098671;23;20874;-96
2023/04/03 11:53:39;;;;;;;13.20;6.40;;;;;;;;;;2041127;28;20043;-94
2023/04/03 11:55:00;;;;;;;10.82;5.40;;;;;;;;;;2048828;28;20031;-95
2023/04/03 11:56:25;;;;;;;8.80;5.60;;;;;;;;;;2041470;29;20120;-95
2023/04/03 11:57:52;;;;;;;6.68;4.95;;;;;;;;;;2041076;29;20117;-96
2023/04/03 11:59:13;;;;;;;10.90;5.40;;;;;;;;;;2035449;29;20039;-94
2023/04/03 12:00:52;;;;;;;10.95;5.07;;;;;;;;;;2040091;29;20024;-95
2023/04/03 12:02:43;;;;;;;9.13;5.35;;;;;;;;;;2044030;29;20028;-95
2023/04/03 12:04:16;;;;;;;;;;;;;;;;;;;;;
2023/04/03 12:05:40;;;;;;;9.00;4.90;;;;;;;;;;2046704;28;20031;-95
2023/04/03 12:07:10;;;;;;;9.32;5.63;;;;;;;;;;2042917;29;20036;-95
2023/04/03 12:08:48;;;;;;;10.65;5.30;;;;;;;;;;2040367;29;20046;-95
2023/04/03 12:10:39;;;;;;;;;;;;;;;;;;;;;
2023/04/03 12:12:20;;;;;;;16.20;6.68;;;;;;;;;;2051585;29;20042;-94
2023/04/03 12:13:41;;;;;;;9.40;5.57;;;;;;;;;;2037371;29;20047;-95
2023/04/03 12:15:03;;;;;;;;;;;;;;;;;;2046997;29;20047;-95
2023/04/03 12:16:28;;;;;;;11.55;5.70;;;;;;;;;;2042415;29;19953;-95
2023/04/03 12:17:52;;;;;;;11.85;5.60;;;;;;;;;;2043468;29;20032;-95
2023/04/03 12:19:33;;;;;;;10.18;5.65;;;;;;;;;;2040631;29;20564;-95
2023/04/03 12:21:02;;;;;;;8.85;5.65;;;;;;;;;;2042865;29;20039;-95
2023/04/03 12:22:34;;;;;;;;;;;;;;;;;;;;;
2023/04/03 12:24:24;;;;;;;9.88;5.85;;;;;;;;;;2039206;28;20030;-95
2023/04/03 12:26:10;;;;;;;;;;;;;;;;;;;;;
2023/04/03 12:27:57;;;;;;;;;;;;;;;;;;;;;
2023/04/03 12:29:33;;;;;;;8.77;5.68;;;;;;;;;;2045612;29;20083;-96
2023/04/03 12:31:11;;;;;;;10.43;5.47;;;;;;;;;;2042296;29;20067;-95
2023/04/03 12:32:36;;;;;;;14.75;6.30;;;;;;;;;;2041962;29;20492;-94
2023/04/03 12:34:19;;;;;;;9.80;5.70;;;;;;;;;;2036518;29;20466;-95
2023/04/03 12:38:08;;;;;;;13.02;6.03;;;;;;;;;;2042492;29;20032;-95
2023/04/03 12:42:00;;;;;;;9.88;5.40;;;;;;;;;;2042771;28;20028;-95
2023/04/03 12:43:56;;;;;;;13.55;5.78;;;;;;;;;;2037713;29;20036;-95
2023/04/03 12:45:37;;;;;;;9.45;5.10;;;;;;;;;;2046185;29;20115;-95
2023/04/03 12:47:02;;;;;;;13.30;6.15;;;;;;;;;;2043686;29;20044;-96
2023/04/03 12:48:42;;;;;;;11.25;5.80;;;;;;;;;;2040502;29;20024;-95
2023/04/03 12:51:57;;;;;;;9.35;5.43;;;;;;;;;;2049587;29;20506;-94
2023/04/03 12:53:26;;;;;;;16.10;5.78;;;;;;;;;;2043094;29;20075;-95
2023/04/03 12:54:57;;;;;;;11.77;5.75;;;;;;;;;;2028885;28;20039;-95
2023/04/03 12:56:38;;;;;;;10.88;5.35;;;;;;;;;;2036039;29;20035;-95
2023/04/03 12:58:18;;;;;;;11.70;5.82;;;;;;;;;;2043029;29;20044;-95
2023/04/03 13:00:17;;;;;;;7.20;5.03;;;;;;;;;;2045295;29;20035;-96
2023/04/03 13:01:59;;;;;;;5.55;4.18;;;;;;;;;;2037039;29;20048;-96
2023/04/03 13:05:32;;;;;;;12.65;6.55;;;;;;;;;;2032136;29;20032;-96
2023/04/03 13:14:08;;;;;;;;;;;;;;;;;;;;;
2023/04/03 13:17:50;;;;;;;22.15;8.05;;;;;;;;;;2050821;29;20031;-96
2023/04/03 13:22:01;;;;;;;;;;;;;;;;;;;;;
2023/04/03 13:23:37;;;;;;;6.65;4.38;;;;;;;;;;2034792;29;20036;-96
2023/04/03 13:25:38;;;;;;;6.30;4.88;;;;;;;;;;2018207;29;20029;-96
2023/04/03 13:48:18;;;;;;;;;;;;;;;;;;;;;
2023/04/03 13:50:09;;;;;;;8.45;4.95;;;;;;;;;;2007703;29;20041;-95
2023/04/03 14:01:49;;;;;;;6.45;4.63;;;;;;;;;;2043469;28;20023;-77
2023/04/03 14:03:18;;;;;;;6.97;4.80;;;;;;;;;;2042223;29;20035;-75
2023/04/03 14:04:52;;;;;;;14.45;5.90;;;;;;;;;;2040386;29;20031;-75
2023/04/03 14:06:15;;;;;;;7.97;4.43;;;;;;;;;;2041485;29;20035;-76
2023/04/03 14:07:39;;;;;;;7.40;4.53;;;;;;;;;;2041890;29;20032;-74
2023/04/03 14:09:44;;;;;;;8.27;4.65;;;;;;;;;;2043579;28;20028;-75
2023/04/03 14:11:05;;;;;;;9.25;5.20;;;;;;;;;;2041765;28;20024;-74
2023/04/03 14:12:44;;;;;;;5.97;4.10;;;;;;;;;;2049805;29;20487;-75
2023/04/03 14:14:10;;;;;;;8.50;4.85;;;;;;;;;;2043428;29;20043;-75